createdAt,value
2017-09-21T00:02:47.904Z,10.20
2017-09-21T00:05:57.935Z,10.20
2017-09-21T00:09:08.706Z,10.20
2017-09-21T00:12:18.762Z,10.20
2017-09-21T00:15:28.652Z,10.20
2017-09-21T00:18:38.360Z,10.20
2017-09-21T00:21:48.656Z,10.20
2017-09-21T00:24:58.887Z,10.20
2017-09-21T00:28:08.686Z,10.20
2017-09-21T00:31:19.175Z,10.20
2017-09-21T00:34:29.232Z,10.10
2017-09-21T00:37:40.331Z,10.10
2017-09-21T00:40:50.094Z,10.10
2017-09-21T00:44:00.222Z,10.10
2017-09-21T00:47:10.319Z,10.10
2017-09-21T00:50:20.143Z,10.20
2017-09-21T00:53:31.259Z,10.10
2017-09-21T00:56:41.455Z,10.10
2017-09-21T00:59:51.661Z,10.10
2017-09-21T01:03:02.982Z,10.10
2017-09-21T01:06:13.375Z,10.10
2017-09-21T01:09:23.533Z,10.10
2017-09-21T01:12:33.699Z,10.10
2017-09-21T01:15:43.878Z,10.10
2017-09-21T01:18:54.510Z,10.10
2017-09-21T01:22:04.468Z,10.10
2017-09-21T01:25:14.368Z,10.10
2017-09-21T01:28:24.474Z,10.10
2017-09-21T01:31:33.827Z,10.10
2017-09-21T01:34:43.334Z,10.10
2017-09-21T01:37:53.580Z,10.10
2017-09-21T01:41:04.229Z,10.10
2017-09-21T01:44:14.179Z,10.10
2017-09-21T01:47:23.886Z,10.20
2017-09-21T01:50:34.414Z,10.10
2017-09-21T01:53:45.432Z,10.10
2017-09-21T01:56:56.720Z,10.10
2017-09-21T02:00:07.724Z,10.10
2017-09-21T02:03:18.208Z,10.10
2017-09-21T02:06:28.818Z,10.10
2017-09-21T02:09:39.578Z,10.10
2017-09-21T02:12:49.961Z,10.00
2017-09-21T02:16:00.688Z,10.00
2017-09-21T02:19:10.623Z,10.00
2017-09-21T02:22:21.154Z,10.10
2017-09-21T02:25:32.578Z,10.00
2017-09-21T02:28:43.156Z,10.00
2017-09-21T02:31:54.165Z,10.00
2017-09-21T02:35:04.385Z,10.00
2017-09-21T02:38:15.085Z,10.00
2017-09-21T02:41:25.822Z,10.00
2017-09-21T02:44:36.218Z,10.00
2017-09-21T02:47:46.450Z,10.00
2017-09-21T02:50:57.180Z,10.00
2017-09-21T02:54:07.844Z,10.00
2017-09-21T02:57:18.240Z,10.00
2017-09-21T03:00:28.442Z,9.90
2017-09-21T03:03:38.178Z,10.00
2017-09-21T03:06:48.161Z,9.90
2017-09-21T03:09:58.574Z,9.90
2017-09-21T03:13:08.728Z,10.00
2017-09-21T03:16:18.833Z,9.90
2017-09-21T03:19:28.812Z,9.90
2017-09-21T03:22:39.125Z,9.90
2017-09-21T03:25:49.714Z,9.90
2017-09-21T03:28:59.893Z,10.00
2017-09-21T03:32:10.282Z,10.10
2017-09-21T03:35:20.652Z,10.10
2017-09-21T03:38:30.929Z,10.10
2017-09-21T03:41:41.127Z,10.00
2017-09-21T03:44:51.546Z,9.90
2017-09-21T03:48:01.406Z,9.80
2017-09-21T03:51:12.086Z,9.80
2017-09-21T03:54:22.074Z,9.70
2017-09-21T03:57:33.557Z,9.80
2017-09-21T04:00:44.476Z,9.80
2017-09-21T04:03:54.972Z,9.80
2017-09-21T04:07:05.986Z,9.80
2017-09-21T04:10:16.493Z,9.80
2017-09-21T04:13:26.500Z,9.70
2017-09-21T04:16:42.716Z,9.70
2017-09-21T04:19:52.371Z,9.70
2017-09-21T04:23:03.136Z,9.70
2017-09-21T04:26:13.413Z,9.70
2017-09-21T04:29:23.536Z,9.60
2017-09-21T04:32:33.293Z,9.50
2017-09-21T04:35:43.473Z,9.50
2017-09-21T04:38:53.883Z,9.50
2017-09-21T04:42:03.734Z,9.40
2017-09-21T04:45:14.341Z,9.30
2017-09-21T04:48:24.437Z,9.30
2017-09-21T04:51:34.757Z,9.30
2017-09-21T04:54:44.855Z,9.30
2017-09-21T04:57:55.231Z,9.20
2017-09-21T05:01:05.724Z,9.30
2017-09-21T05:04:15.562Z,9.20
2017-09-21T05:07:25.936Z,9.20
2017-09-21T05:10:36.403Z,9.20
2017-09-21T05:13:46.952Z,9.20
2017-09-21T05:16:58.405Z,9.10
2017-09-21T05:20:08.013Z,9.10
2017-09-21T05:23:18.477Z,9.00
2017-09-21T05:26:28.331Z,9.10
2017-09-21T05:29:38.204Z,9.10
2017-09-21T05:32:48.722Z,9.10
2017-09-21T05:35:58.844Z,8.90
2017-09-21T05:39:09.204Z,8.90
2017-09-21T05:42:19.489Z,9.00
2017-09-21T05:45:29.337Z,9.10
2017-09-21T05:48:39.092Z,9.10
2017-09-21T05:51:49.160Z,9.20
2017-09-21T05:54:59.290Z,9.30
2017-09-21T05:58:10.005Z,9.30
2017-09-21T06:01:20.333Z,9.40
2017-09-21T06:04:30.593Z,9.50
2017-09-21T06:07:41.039Z,9.50
2017-09-21T06:10:51.086Z,9.60
2017-09-21T06:14:01.964Z,9.60
2017-09-21T06:17:12.364Z,9.60
2017-09-21T06:20:22.548Z,9.60
2017-09-21T06:23:33.493Z,9.70
2017-09-21T06:26:43.812Z,9.80
2017-09-21T06:29:53.997Z,9.80
2017-09-21T06:33:04.916Z,9.90
2017-09-21T06:36:15.432Z,9.90
2017-09-21T06:39:25.737Z,9.90
2017-09-21T06:42:35.623Z,9.90
2017-09-21T06:45:46.151Z,9.90
2017-09-21T06:48:57.094Z,10.00
2017-09-21T06:52:07.697Z,10.00
2017-09-21T06:55:17.739Z,10.10
2017-09-21T06:58:27.860Z,10.10
2017-09-21T07:01:37.834Z,10.20
2017-09-21T07:04:48.142Z,10.20
2017-09-21T07:07:58.884Z,10.30
2017-09-21T07:11:09.201Z,10.30
2017-09-21T07:14:19.271Z,10.40
2017-09-21T07:17:29.882Z,10.40
2017-09-21T07:20:40.587Z,10.40
2017-09-21T07:23:50.364Z,10.50
2017-09-21T07:27:00.841Z,10.50
2017-09-21T07:30:11.384Z,10.50
2017-09-21T07:33:21.008Z,10.50
2017-09-21T07:36:31.083Z,10.60
2017-09-21T07:39:40.876Z,10.60
2017-09-21T07:42:50.707Z,10.60
2017-09-21T07:46:01.057Z,10.60
2017-09-21T07:49:11.398Z,10.70
2017-09-21T07:52:21.836Z,10.70
2017-09-21T07:55:32.300Z,10.70
2017-09-21T07:58:42.639Z,10.70
2017-09-21T08:01:53.277Z,10.80
2017-09-21T08:05:02.975Z,10.80
2017-09-21T08:08:12.857Z,10.90
2017-09-21T08:11:22.902Z,10.90
2017-09-21T08:14:32.753Z,10.90
2017-09-21T08:17:42.856Z,11.00
2017-09-21T08:20:52.890Z,11.00
2017-09-21T08:24:03.461Z,11.10
2017-09-21T08:27:14.029Z,11.00
2017-09-21T08:30:24.177Z,11.20
2017-09-21T08:33:34.113Z,11.30
2017-09-21T08:36:44.400Z,11.40
2017-09-21T08:39:54.582Z,11.30
2017-09-21T08:43:04.803Z,11.40
2017-09-21T08:46:15.526Z,11.50
2017-09-21T08:49:26.189Z,11.60
2017-09-21T08:52:36.312Z,11.50
2017-09-21T08:55:46.583Z,11.60
2017-09-21T08:58:56.798Z,11.70
2017-09-21T09:02:07.432Z,11.70
2017-09-21T09:05:17.124Z,11.80
2017-09-21T09:08:27.136Z,11.80
2017-09-21T09:11:37.598Z,11.90
2017-09-21T09:14:47.870Z,11.90
2017-09-21T09:17:58.220Z,11.90
2017-09-21T09:21:08.721Z,12.00
2017-09-21T09:24:18.601Z,12.10
2017-09-21T09:27:28.684Z,12.10
2017-09-21T09:30:38.979Z,12.10
2017-09-21T09:33:49.431Z,12.50
2017-09-21T09:36:59.909Z,12.70
2017-09-21T09:40:10.110Z,12.60
2017-09-21T09:43:20.207Z,12.90
2017-09-21T09:46:31.280Z,13.20
2017-09-21T09:49:42.031Z,13.20
2017-09-21T09:52:52.768Z,13.10
2017-09-21T09:56:03.534Z,13.30
2017-09-21T09:59:13.689Z,13.60
2017-09-21T10:02:24.315Z,13.20
2017-09-21T10:05:34.870Z,13.20
2017-09-21T10:08:45.074Z,13.60
2017-09-21T10:11:54.902Z,13.20
2017-09-21T10:15:05.038Z,13.40
2017-09-21T10:18:15.351Z,13.20
2017-09-21T10:21:26.065Z,13.70
2017-09-21T10:24:36.190Z,13.70
2017-09-21T10:27:46.519Z,13.60
2017-09-21T10:30:56.927Z,13.60
2017-09-21T10:34:07.082Z,13.80
2017-09-21T10:37:17.688Z,13.90
2017-09-21T10:40:28.128Z,13.90
2017-09-21T10:43:39.600Z,13.60
2017-09-21T10:46:50.069Z,13.60
2017-09-21T10:50:00.264Z,13.90
2017-09-21T10:53:10.123Z,14.00
2017-09-21T10:56:20.364Z,14.10
2017-09-21T10:59:31.045Z,14.00
2017-09-21T11:02:41.017Z,14.10
2017-09-21T11:05:51.811Z,14.10
2017-09-21T11:09:01.685Z,13.80
2017-09-21T11:12:11.956Z,13.90
2017-09-21T11:15:22.545Z,14.20
2017-09-21T11:18:33.345Z,14.40
2017-09-21T11:21:43.576Z,14.40
2017-09-21T11:24:54.139Z,14.30
2017-09-21T11:28:05.325Z,14.30
2017-09-21T11:31:16.419Z,14.40
2017-09-21T11:34:26.684Z,14.40
2017-09-21T11:37:37.540Z,14.50
2017-09-21T11:40:48.485Z,14.40
2017-09-21T11:43:58.510Z,14.60
2017-09-21T11:47:08.879Z,14.80
2017-09-21T11:50:18.948Z,14.70
2017-09-21T11:53:28.675Z,14.70
2017-09-21T11:56:39.040Z,14.40
2017-09-21T11:59:49.039Z,14.70
2017-09-21T12:02:58.948Z,15.00
2017-09-21T12:06:09.417Z,14.80
2017-09-21T12:09:19.957Z,15.00
2017-09-21T12:12:30.229Z,14.90
2017-09-21T12:15:40.340Z,14.80
2017-09-21T12:18:50.286Z,14.70
2017-09-21T12:22:00.240Z,14.90
2017-09-21T12:25:10.359Z,14.80
2017-09-21T12:28:21.049Z,14.90
2017-09-21T12:31:30.836Z,15.00
2017-09-21T12:34:41.388Z,15.10
2017-09-21T12:37:51.275Z,15.20
2017-09-21T12:41:01.383Z,15.20
2017-09-21T12:44:11.807Z,15.10
2017-09-21T12:47:21.901Z,14.90
2017-09-21T12:50:32.191Z,15.10
2017-09-21T12:53:42.607Z,15.10
2017-09-21T12:56:53.281Z,15.40
2017-09-21T13:00:03.676Z,15.50
2017-09-21T13:03:13.943Z,15.50
2017-09-21T13:06:24.343Z,15.70
2017-09-21T13:09:34.683Z,15.30
2017-09-21T13:12:44.847Z,15.40
2017-09-21T13:15:55.410Z,15.30
2017-09-21T13:19:05.466Z,15.40
2017-09-21T13:22:16.226Z,15.50
2017-09-21T13:25:27.006Z,15.60
2017-09-21T13:28:36.923Z,15.50
2017-09-21T13:31:47.230Z,15.70
2017-09-21T13:34:57.641Z,15.70
2017-09-21T13:38:07.749Z,15.70
2017-09-21T13:41:17.919Z,15.70
2017-09-21T13:44:29.532Z,15.80
2017-09-21T13:47:39.817Z,15.60
2017-09-21T13:50:50.302Z,15.60
2017-09-21T13:54:00.188Z,15.60
2017-09-21T13:57:09.962Z,15.70
2017-09-21T14:00:20.226Z,15.80
2017-09-21T14:03:30.422Z,15.70
2017-09-21T14:06:40.998Z,15.60
2017-09-21T14:09:52.607Z,15.60
2017-09-21T14:13:04.204Z,15.60
2017-09-21T14:16:14.938Z,15.60
2017-09-21T14:19:26.769Z,15.50
2017-09-21T14:22:38.102Z,15.50
2017-09-21T14:25:48.777Z,15.40
2017-09-21T14:28:59.755Z,15.50
2017-09-21T14:32:10.466Z,15.50
2017-09-21T14:35:20.770Z,15.50
2017-09-21T14:38:31.383Z,15.50
2017-09-21T14:41:41.558Z,15.60
2017-09-21T14:44:52.178Z,15.60
2017-09-21T14:48:04.789Z,15.50
2017-09-21T14:51:15.436Z,15.50
2017-09-21T14:54:25.372Z,15.40
2017-09-21T14:57:35.207Z,15.50
2017-09-21T15:00:45.419Z,15.40
2017-09-21T15:03:55.386Z,15.40
2017-09-21T15:07:06.049Z,15.40
2017-09-21T15:10:16.504Z,15.40
2017-09-21T15:13:26.495Z,15.40
2017-09-21T15:16:36.544Z,15.30
2017-09-21T15:19:46.635Z,15.30
2017-09-21T15:22:57.087Z,15.40
2017-09-21T15:26:07.333Z,15.30
2017-09-21T15:29:18.335Z,15.20
2017-09-21T15:32:28.646Z,15.20
2017-09-21T15:35:39.071Z,15.30
2017-09-21T15:38:49.388Z,15.30
2017-09-21T15:42:00.269Z,15.30
2017-09-21T15:45:11.270Z,15.30
2017-09-21T15:48:21.048Z,15.30
2017-09-21T15:51:35.388Z,15.20
2017-09-21T15:54:46.769Z,15.40
2017-09-21T16:01:24.429Z,15.30
2017-09-21T16:04:35.170Z,15.40
2017-09-21T16:07:45.340Z,15.40
2017-09-21T16:10:55.005Z,15.30
2017-09-21T16:14:05.475Z,15.20
2017-09-21T16:17:15.362Z,15.20
2017-09-21T16:20:26.715Z,15.20
2017-09-21T16:23:37.610Z,15.20
2017-09-21T16:26:47.648Z,15.10
2017-09-21T16:29:57.572Z,15.10
2017-09-21T16:33:08.685Z,15.00
2017-09-21T16:36:18.994Z,14.90
2017-09-21T16:39:28.960Z,15.00
2017-09-21T16:42:40.411Z,15.10
2017-09-21T16:45:50.895Z,15.10
2017-09-21T16:49:01.469Z,15.10
2017-09-21T16:52:11.589Z,15.00
2017-09-21T16:55:21.840Z,14.90
2017-09-21T16:58:31.963Z,14.90
2017-09-21T17:01:42.993Z,14.90
2017-09-21T17:04:53.821Z,14.90
2017-09-21T17:08:04.642Z,14.90
2017-09-21T17:11:15.978Z,14.80
2017-09-21T17:14:26.603Z,14.70
2017-09-21T17:17:37.987Z,14.70
2017-09-21T17:20:47.829Z,14.70
2017-09-21T17:23:58.223Z,14.70
2017-09-21T17:27:08.625Z,14.60
2017-09-21T17:30:19.914Z,14.50
2017-09-21T17:33:30.053Z,14.50
2017-09-21T17:36:40.206Z,14.50
2017-09-21T17:39:50.304Z,14.50
2017-09-21T17:43:00.442Z,14.50
2017-09-21T17:46:10.890Z,14.40
2017-09-21T17:49:20.985Z,14.40
2017-09-21T17:52:30.956Z,14.30
2017-09-21T17:55:43.967Z,14.30
2017-09-21T18:02:20.188Z,14.20
2017-09-21T18:05:30.648Z,14.20
2017-09-21T18:08:41.566Z,14.20
2017-09-21T18:11:51.726Z,14.10
2017-09-21T18:15:01.886Z,14.10
2017-09-21T18:18:12.576Z,14.00
2017-09-21T18:21:22.559Z,13.90
2017-09-21T18:24:32.688Z,14.00
2017-09-21T18:27:43.390Z,14.00
2017-09-21T18:30:54.505Z,13.90
2017-09-21T18:34:04.781Z,13.90
2017-09-21T18:37:15.076Z,13.80
2017-09-21T18:40:25.262Z,13.70
2017-09-21T18:43:35.051Z,13.80
2017-09-21T18:46:45.439Z,13.80
2017-09-21T18:49:56.361Z,13.70
2017-09-21T18:53:06.608Z,13.70
2017-09-21T18:56:16.791Z,13.70
2017-09-21T18:59:27.621Z,13.40
2017-09-21T19:02:37.938Z,13.40
2017-09-21T19:05:48.068Z,13.40
2017-09-21T19:08:58.358Z,13.40
2017-09-21T19:12:08.566Z,13.30
2017-09-21T19:15:19.585Z,13.30
2017-09-21T19:18:31.840Z,13.30
2017-09-21T19:21:41.836Z,13.30
2017-09-21T19:24:51.780Z,13.30
2017-09-21T19:28:02.290Z,13.40
2017-09-21T19:31:15.766Z,13.30
2017-09-21T19:34:27.950Z,13.20
2017-09-21T19:37:38.318Z,13.20
2017-09-21T19:40:49.637Z,13.20
2017-09-21T19:44:00.300Z,13.20
2017-09-21T19:47:10.757Z,13.20
2017-09-21T19:50:21.896Z,13.20
2017-09-21T19:53:31.923Z,13.10
2017-09-21T19:56:42.061Z,13.10
2017-09-21T19:59:52.142Z,13.00
2017-09-21T20:03:02.420Z,13.00
2017-09-21T20:06:12.465Z,13.00
2017-09-21T20:09:23.105Z,13.10
2017-09-21T20:12:33.797Z,13.10
2017-09-21T20:15:44.921Z,13.10
2017-09-21T20:18:55.696Z,13.00
2017-09-21T20:22:06.345Z,13.00
2017-09-21T20:25:16.572Z,13.00
2017-09-21T20:28:27.873Z,13.00
2017-09-21T20:31:37.804Z,13.00
2017-09-21T20:34:48.583Z,13.00
2017-09-21T20:37:58.547Z,13.00
2017-09-21T20:41:09.354Z,13.00
2017-09-21T20:44:20.805Z,13.00
2017-09-21T20:47:31.087Z,13.00
2017-09-21T20:50:41.767Z,12.80
2017-09-21T20:53:52.052Z,12.80
2017-09-21T20:57:02.418Z,12.80
2017-09-21T21:00:12.780Z,12.80
2017-09-21T21:03:23.209Z,12.80
2017-09-21T21:06:33.587Z,12.80
2017-09-21T21:09:43.504Z,12.80
2017-09-21T21:12:54.396Z,12.80
2017-09-21T21:16:05.839Z,12.80
2017-09-21T21:19:16.399Z,12.80
2017-09-21T21:22:26.840Z,12.80
2017-09-21T21:25:36.999Z,12.60
2017-09-21T21:28:47.241Z,12.60
2017-09-21T21:31:57.683Z,12.70
2017-09-21T21:35:08.316Z,12.70
2017-09-21T21:38:18.446Z,12.70
2017-09-21T21:41:28.798Z,12.70
2017-09-21T21:44:39.502Z,12.70
2017-09-21T21:47:49.959Z,12.70
2017-09-21T21:51:00.645Z,12.70
2017-09-21T21:54:11.324Z,12.60
2017-09-21T21:57:23.037Z,12.60
2017-09-21T22:00:33.437Z,12.60
2017-09-21T22:03:43.672Z,12.50
2017-09-21T22:06:54.054Z,12.50
2017-09-21T22:10:04.223Z,12.50
2017-09-21T22:13:14.627Z,12.50
2017-09-21T22:16:24.953Z,12.50
2017-09-21T22:19:36.029Z,12.50
2017-09-21T22:22:46.166Z,12.50
2017-09-21T22:25:57.077Z,12.50
2017-09-21T22:29:07.162Z,12.50
2017-09-21T22:32:17.577Z,12.50
2017-09-21T22:35:27.563Z,12.50
2017-09-21T22:38:38.463Z,12.40
2017-09-21T22:41:48.622Z,12.40
2017-09-21T22:44:59.538Z,12.50
2017-09-21T22:48:10.390Z,12.40
2017-09-21T22:51:20.548Z,12.50
2017-09-21T22:54:30.483Z,12.40
2017-09-21T22:57:40.696Z,12.40
2017-09-21T23:00:52.172Z,12.40
2017-09-21T23:04:02.135Z,12.40
2017-09-21T23:07:12.436Z,12.40
2017-09-21T23:10:23.840Z,12.40
2017-09-21T23:13:34.573Z,12.30
2017-09-21T23:16:45.269Z,12.30
2017-09-21T23:19:55.672Z,12.20
2017-09-21T23:23:05.722Z,12.30
2017-09-21T23:26:15.726Z,12.20
2017-09-21T23:29:26.262Z,12.20
2017-09-21T23:32:36.651Z,12.20
2017-09-21T23:35:46.890Z,12.20
2017-09-21T23:38:57.125Z,12.10
2017-09-21T23:42:08.447Z,12.20
2017-09-21T23:45:18.782Z,12.20
2017-09-21T23:48:29.095Z,12.20
2017-09-21T23:51:39.509Z,12.20
2017-09-21T23:54:49.875Z,12.20
2017-09-21T23:58:00.647Z,12.20
